createdAt,value
2018-03-08T00:01:21.313Z,58.47
2018-03-08T00:03:52.005Z,60.60
2018-03-08T00:06:22.830Z,53.37
2018-03-08T00:08:53.559Z,56.00
2018-03-08T00:11:25.532Z,51.67
2018-03-08T00:13:56.703Z,54.87
2018-03-08T00:16:27.066Z,62.03
2018-03-08T00:18:57.859Z,57.20
2018-03-08T00:21:28.268Z,65.53
2018-03-08T00:23:59.324Z,66.33
2018-03-08T00:26:30.279Z,54.57
2018-03-08T00:29:01.156Z,46.97
2018-03-08T00:31:31.303Z,48.40
2018-03-08T00:34:02.140Z,43.60
2018-03-08T00:36:33.009Z,37.53
2018-03-08T00:39:04.256Z,43.20
2018-03-08T00:41:35.164Z,36.87
2018-03-08T00:44:05.786Z,32.37
2018-03-08T00:46:36.699Z,28.60
2018-03-08T00:49:07.171Z,34.00
2018-03-08T00:51:37.481Z,33.40
2018-03-08T00:54:07.512Z,36.23
2018-03-08T00:56:38.114Z,40.40
2018-03-08T00:59:08.638Z,39.27
2018-03-08T01:01:39.177Z,37.83
2018-03-08T01:04:09.138Z,34.93
2018-03-08T01:06:39.640Z,37.17
2018-03-08T01:09:10.280Z,39.03
2018-03-08T01:11:40.985Z,41.67
2018-03-08T01:14:12.052Z,50.83
2018-03-08T01:16:42.676Z,53.37
2018-03-08T01:19:13.423Z,82.53
2018-03-08T01:21:43.842Z,86.13
2018-03-08T01:24:14.576Z,76.80
2018-03-08T01:26:45.307Z,71.90
2018-03-08T01:29:15.933Z,79.20
2018-03-08T01:31:46.885Z,82.10
2018-03-08T01:34:17.578Z,83.47
2018-03-08T01:36:47.927Z,77.63
2018-03-08T01:39:19.072Z,85.57
2018-03-08T01:41:49.937Z,82.13
2018-03-08T01:44:20.307Z,79.37
2018-03-08T01:46:50.957Z,71.57
2018-03-08T01:49:21.821Z,71.77
2018-03-08T01:52:03.702Z,81.80
2018-03-08T01:54:34.154Z,69.20
2018-03-08T01:57:05.050Z,62.23
2018-03-08T01:59:35.946Z,60.10
2018-03-08T02:02:06.547Z,65.80
2018-03-08T02:04:37.623Z,60.83
2018-03-08T02:07:07.475Z,58.37
2018-03-08T02:09:37.907Z,58.20
2018-03-08T02:12:09.014Z,61.87
2018-03-08T02:14:39.739Z,75.90
2018-03-08T02:17:11.149Z,62.80
2018-03-08T02:19:42.086Z,59.73
2018-03-08T02:22:12.826Z,58.53
2018-03-08T02:24:44.614Z,65.73
2018-03-08T02:27:15.220Z,60.03
2018-03-08T02:29:46.193Z,64.20
2018-03-08T02:32:16.067Z,64.93
2018-03-08T02:34:46.956Z,62.63
2018-03-08T02:37:17.461Z,59.03
2018-03-08T02:39:47.727Z,54.17
2018-03-08T02:42:17.568Z,56.43
2018-03-08T02:44:48.156Z,60.57
2018-03-08T02:47:18.739Z,56.60
2018-03-08T02:49:49.458Z,53.13
2018-03-08T02:52:19.889Z,47.03
2018-03-08T02:54:50.417Z,49.90
2018-03-08T02:57:21.422Z,49.00
2018-03-08T02:59:52.717Z,47.87
2018-03-08T03:02:23.248Z,48.87
2018-03-08T03:04:54.092Z,53.70
2018-03-08T03:07:24.480Z,49.87
2018-03-08T03:09:55.197Z,49.23
2018-03-08T03:12:26.047Z,56.87
2018-03-08T03:14:57.179Z,55.30
2018-03-08T03:17:27.843Z,55.33
2018-03-08T03:19:58.153Z,49.90
2018-03-08T03:22:28.932Z,55.13
2018-03-08T03:24:59.966Z,56.60
2018-03-08T03:27:31.413Z,48.07
2018-03-08T03:30:02.418Z,54.17
2018-03-08T03:32:33.158Z,49.03
2018-03-08T03:35:03.182Z,48.63
2018-03-08T03:37:34.024Z,51.10
2018-03-08T03:40:04.659Z,37.10
2018-03-08T03:42:35.759Z,37.70
2018-03-08T03:45:06.809Z,34.83
2018-03-08T03:47:37.467Z,32.17
2018-03-08T03:50:07.879Z,34.90
2018-03-08T03:52:38.359Z,30.43
2018-03-08T03:55:08.448Z,24.83
2018-03-08T03:57:40.050Z,30.47
2018-03-08T04:00:10.483Z,26.37
2018-03-08T04:02:41.155Z,26.10
2018-03-08T04:05:11.581Z,26.20
2018-03-08T04:07:42.164Z,29.27
2018-03-08T04:10:12.130Z,31.90
2018-03-08T04:12:42.756Z,32.37
2018-03-08T04:15:13.396Z,28.77
2018-03-08T04:17:44.027Z,30.43
2018-03-08T04:20:15.064Z,27.93
2018-03-08T04:22:46.120Z,28.30
2018-03-08T04:25:17.076Z,30.50
2018-03-08T04:27:48.104Z,28.90
2018-03-08T04:30:19.089Z,23.27
2018-03-08T04:32:50.052Z,26.70
2018-03-08T04:35:20.800Z,23.50
2018-03-08T04:37:52.367Z,26.67
2018-03-08T04:40:23.845Z,27.43
2018-03-08T04:42:54.008Z,28.20
2018-03-08T04:45:25.098Z,28.70
2018-03-08T04:47:55.709Z,26.33
2018-03-08T04:50:26.235Z,27.00
2018-03-08T04:52:57.197Z,30.03
2018-03-08T04:55:28.255Z,27.27
2018-03-08T04:57:58.029Z,26.63
2018-03-08T05:00:27.943Z,24.97
2018-03-08T05:02:57.855Z,23.60
2018-03-08T05:05:27.770Z,23.03
2018-03-08T05:07:59.524Z,24.23
2018-03-08T05:10:29.530Z,24.83
2018-03-08T05:12:59.446Z,25.43
2018-03-08T05:15:29.374Z,24.03
2018-03-08T05:17:59.296Z,26.23
2018-03-08T05:20:30.080Z,30.47
2018-03-08T05:23:01.433Z,29.13
2018-03-08T05:25:32.116Z,24.83
2018-03-08T05:28:03.051Z,24.07
2018-03-08T05:30:33.748Z,25.33
2018-03-08T05:33:04.686Z,24.50
2018-03-08T05:35:35.576Z,23.87
2018-03-08T05:38:05.982Z,21.57
2018-03-08T05:40:36.611Z,25.77
2018-03-08T05:43:06.734Z,24.67
2018-03-08T05:45:37.972Z,22.43
2018-03-08T05:48:09.226Z,21.27
2018-03-08T05:50:40.243Z,27.27
2018-03-08T05:53:10.697Z,24.07
2018-03-08T05:55:41.355Z,22.87
2018-03-08T05:58:11.837Z,19.70
2018-03-08T06:00:42.249Z,23.57
2018-03-08T06:03:13.437Z,21.27
2018-03-08T06:05:44.516Z,23.37
2018-03-08T06:08:15.374Z,23.73
2018-03-08T06:10:46.585Z,21.90
2018-03-08T06:13:17.298Z,22.80
2018-03-08T06:15:48.191Z,21.07
2018-03-08T06:18:18.957Z,27.87
2018-03-08T06:20:49.847Z,20.87
2018-03-08T06:23:20.669Z,22.80
2018-03-08T06:25:51.662Z,21.30
2018-03-08T06:28:22.671Z,20.17
2018-03-08T06:30:53.690Z,20.00
2018-03-08T06:33:24.413Z,16.93
2018-03-08T06:35:55.105Z,24.83
2018-03-08T06:38:26.565Z,16.67
2018-03-08T06:40:59.154Z,17.20
2018-03-08T06:43:30.563Z,18.43
2018-03-08T06:46:01.232Z,16.77
2018-03-08T06:48:32.215Z,19.23
2018-03-08T06:51:03.002Z,21.37
2018-03-08T06:53:34.092Z,18.53
2018-03-08T06:56:04.776Z,19.30
2018-03-08T06:58:34.900Z,18.63
2018-03-08T07:01:05.428Z,20.60
2018-03-08T07:03:35.739Z,17.73
2018-03-08T07:06:06.289Z,17.73
2018-03-08T07:08:37.105Z,19.70
2018-03-08T07:11:08.365Z,24.33
2018-03-08T07:13:39.216Z,16.07
2018-03-08T07:16:09.342Z,17.70
2018-03-08T07:18:41.000Z,15.20
2018-03-08T07:21:12.101Z,15.33
2018-03-08T07:23:42.494Z,19.57
2018-03-08T07:26:13.606Z,17.10
2018-03-08T07:28:44.425Z,25.00
2018-03-08T07:31:15.356Z,17.60
2018-03-08T07:33:46.082Z,20.40
2018-03-08T07:36:17.120Z,15.40
2018-03-08T07:38:47.842Z,31.43
2018-03-08T07:41:18.785Z,27.30
2018-03-08T07:43:49.387Z,23.83
2018-03-08T07:46:20.592Z,20.70
2018-03-08T07:48:51.556Z,38.10
2018-03-08T07:51:23.231Z,31.43
2018-03-08T07:53:54.812Z,30.20
2018-03-08T07:56:25.802Z,32.90
2018-03-08T07:58:56.744Z,20.77
2018-03-08T08:01:27.644Z,23.23
2018-03-08T08:03:59.369Z,23.87
2018-03-08T08:06:36.507Z,26.80
2018-03-08T08:09:11.635Z,28.93
2018-03-08T08:11:43.617Z,27.43
2018-03-08T08:14:15.778Z,25.17
2018-03-08T08:16:46.509Z,24.90
2018-03-08T08:19:17.528Z,24.83
2018-03-08T08:21:48.999Z,27.17
2018-03-08T08:24:20.137Z,27.23
2018-03-08T08:26:51.788Z,21.80
2018-03-08T08:29:22.290Z,20.53
2018-03-08T08:31:52.832Z,24.47
2018-03-08T08:34:23.089Z,25.83
2018-03-08T08:36:54.100Z,24.83
2018-03-08T08:39:23.936Z,31.87
2018-03-08T08:41:55.222Z,28.43
2018-03-08T08:44:26.304Z,27.90
2018-03-08T08:46:56.754Z,29.97
2018-03-08T08:49:27.435Z,32.07
2018-03-08T08:51:58.927Z,30.53
2018-03-08T08:54:29.866Z,33.13
2018-03-08T08:57:00.471Z,27.47
2018-03-08T08:59:31.212Z,27.27
2018-03-08T09:02:01.966Z,31.33
2018-03-08T09:04:32.975Z,30.83
2018-03-08T09:07:04.032Z,27.77
2018-03-08T09:09:34.778Z,22.73
2018-03-08T09:12:05.307Z,26.80
2018-03-08T09:14:36.146Z,25.03
2018-03-08T09:17:07.814Z,27.80
2018-03-08T09:19:38.340Z,28.77
2018-03-08T09:22:08.265Z,30.37
2018-03-08T09:24:38.905Z,31.80
2018-03-08T09:27:10.006Z,35.97
2018-03-08T09:29:40.882Z,29.93
2018-03-08T09:32:11.502Z,26.43
2018-03-08T09:34:41.824Z,29.40
2018-03-08T09:37:12.567Z,30.30
2018-03-08T09:39:43.137Z,21.93
2018-03-08T09:42:14.380Z,23.03
2018-03-08T09:44:45.364Z,24.13
2018-03-08T09:47:16.495Z,27.70
2018-03-08T09:49:47.403Z,26.13
2018-03-08T09:52:17.894Z,25.27
2018-03-08T09:54:48.298Z,20.23
2018-03-08T09:57:19.028Z,20.80
2018-03-08T09:59:49.604Z,19.73
2018-03-08T10:02:20.675Z,19.60
2018-03-08T10:04:51.469Z,25.83
2018-03-08T10:07:22.079Z,27.83
2018-03-08T10:09:52.721Z,22.77
2018-03-08T10:12:23.098Z,18.20
2018-03-08T10:14:54.057Z,19.87
2018-03-08T10:17:24.604Z,19.77
2018-03-08T10:19:55.521Z,23.60
2018-03-08T10:22:26.188Z,20.53
2018-03-08T10:24:56.855Z,19.87
2018-03-08T10:27:27.936Z,18.73
2018-03-08T10:29:58.939Z,22.73
2018-03-08T10:32:29.518Z,24.37
2018-03-08T10:35:00.436Z,24.53
2018-03-08T10:37:32.134Z,25.83
2018-03-08T10:40:02.132Z,25.33
2018-03-08T10:45:03.814Z,17.00
2018-03-08T10:47:34.762Z,17.20
2018-03-08T10:50:05.683Z,19.73
2018-03-08T10:52:36.187Z,20.60
2018-03-08T10:55:06.009Z,16.60
2018-03-08T10:57:36.798Z,17.37
2018-03-08T11:00:07.888Z,20.07
2018-03-08T11:02:44.874Z,18.30
2018-03-08T11:05:16.041Z,20.53
2018-03-08T11:07:47.049Z,18.27
2018-03-08T11:10:17.838Z,16.00
2018-03-08T11:12:48.361Z,21.63
2018-03-08T11:15:19.444Z,19.83
2018-03-08T11:17:50.427Z,22.63
2018-03-08T11:20:20.998Z,31.13
2018-03-08T11:22:51.780Z,17.63
2018-03-08T11:25:22.626Z,20.67
2018-03-08T11:27:52.839Z,21.13
2018-03-08T11:30:23.418Z,20.10
2018-03-08T11:32:54.674Z,21.97
2018-03-08T11:35:25.248Z,23.87
2018-03-08T11:37:56.838Z,20.67
2018-03-08T11:40:28.023Z,20.20
2018-03-08T11:42:58.474Z,21.17
2018-03-08T11:45:29.205Z,16.13
2018-03-08T11:48:00.046Z,21.87
2018-03-08T11:50:31.287Z,26.37
2018-03-08T11:53:02.026Z,20.67
2018-03-08T11:55:32.794Z,19.60
2018-03-08T11:58:03.638Z,16.67
2018-03-08T12:00:34.675Z,20.57
2018-03-08T12:03:05.547Z,20.07
2018-03-08T12:05:36.325Z,20.30
2018-03-08T12:08:07.733Z,24.30
2018-03-08T12:10:38.581Z,25.37
2018-03-08T12:13:09.021Z,27.17
2018-03-08T12:15:39.576Z,25.63
2018-03-08T12:18:10.933Z,28.90
2018-03-08T12:20:40.917Z,24.33
2018-03-08T12:23:11.555Z,26.73
2018-03-08T12:25:42.184Z,25.17
2018-03-08T12:28:12.479Z,26.03
2018-03-08T12:30:43.367Z,25.43
2018-03-08T12:33:13.991Z,25.63
2018-03-08T12:35:44.568Z,26.20
2018-03-08T12:38:15.711Z,24.93
2018-03-08T12:40:46.394Z,24.70
2018-03-08T12:43:18.529Z,22.27
2018-03-08T12:45:48.469Z,19.27
2018-03-08T12:48:19.068Z,20.27
2018-03-08T12:50:49.715Z,23.80
2018-03-08T12:53:20.449Z,27.00
2018-03-08T12:55:50.982Z,37.60
2018-03-08T12:58:21.501Z,28.63
2018-03-08T13:00:52.056Z,23.73
2018-03-08T13:03:23.168Z,19.73
2018-03-08T13:05:53.394Z,30.20
2018-03-08T13:08:24.029Z,17.67
2018-03-08T13:10:54.870Z,18.20
2018-03-08T13:13:25.464Z,15.47
2018-03-08T13:15:56.121Z,18.93
2018-03-08T13:18:26.678Z,20.83
2018-03-08T13:20:57.188Z,25.77
2018-03-08T13:23:27.814Z,21.63
2018-03-08T13:25:58.446Z,20.53
2018-03-08T13:28:28.590Z,25.13
2018-03-08T13:30:58.724Z,26.67
2018-03-08T13:33:30.102Z,20.53
2018-03-08T13:36:00.692Z,15.50
2018-03-08T13:38:32.310Z,20.13
2018-03-08T13:41:02.890Z,19.00
2018-03-08T13:43:33.626Z,18.40
2018-03-08T13:46:04.014Z,16.17
2018-03-08T13:48:34.974Z,19.23
2018-03-08T13:51:06.036Z,23.17
2018-03-08T13:53:37.792Z,23.93
2018-03-08T13:56:08.712Z,25.17
2018-03-08T13:58:39.863Z,21.90
2018-03-08T14:01:10.180Z,31.53
2018-03-08T14:03:40.839Z,23.87
2018-03-08T14:06:11.654Z,18.57
2018-03-08T14:08:42.519Z,21.43
2018-03-08T14:11:13.126Z,21.87
2018-03-08T14:13:43.958Z,19.07
2018-03-08T14:16:14.666Z,20.63
2018-03-08T14:18:45.941Z,20.80
2018-03-08T14:21:16.363Z,22.90
2018-03-08T14:23:47.879Z,22.17
2018-03-08T14:26:19.145Z,20.17
2018-03-08T14:28:49.862Z,11.37
2018-03-08T14:31:20.713Z,13.70
2018-03-08T14:33:51.584Z,7.60
2018-03-08T14:36:22.633Z,13.00
2018-03-08T14:38:53.143Z,13.30
2018-03-08T14:41:24.119Z,15.93
2018-03-08T14:43:55.031Z,12.57
2018-03-08T14:46:25.668Z,11.70
2018-03-08T14:48:56.067Z,16.60
2018-03-08T14:51:26.740Z,12.60
2018-03-08T14:53:57.241Z,15.00
2018-03-08T14:56:27.674Z,15.83
2018-03-08T14:58:58.098Z,14.23
2018-03-08T15:01:28.364Z,15.97
2018-03-08T15:03:59.262Z,13.23
2018-03-08T15:06:30.256Z,15.80
2018-03-08T15:09:01.030Z,15.90
2018-03-08T15:11:31.638Z,19.37
2018-03-08T15:14:02.270Z,14.30
2018-03-08T15:16:34.275Z,15.83
2018-03-08T15:19:04.887Z,18.93
2018-03-08T15:21:35.521Z,15.40
2018-03-08T15:24:06.576Z,12.07
2018-03-08T15:26:36.479Z,13.63
2018-03-08T15:29:06.597Z,11.77
2018-03-08T15:31:37.379Z,14.23
2018-03-08T15:34:07.353Z,13.47
2018-03-08T15:36:38.087Z,13.53
2018-03-08T15:39:08.763Z,14.80
2018-03-08T15:41:39.753Z,15.57
2018-03-08T15:44:10.514Z,9.27
2018-03-08T15:46:41.215Z,8.50
2018-03-08T15:49:11.564Z,8.73
2018-03-08T15:51:42.611Z,9.47
2018-03-08T15:54:13.224Z,5.83
2018-03-08T15:56:44.207Z,4.83
2018-03-08T15:59:14.179Z,4.53
2018-03-08T16:01:45.255Z,4.70
2018-03-08T16:04:15.594Z,4.80
2018-03-08T16:07:09.221Z,4.30
2018-03-08T16:09:51.227Z,3.93
2018-03-08T16:12:21.757Z,6.43
2018-03-08T16:14:52.911Z,4.30
2018-03-08T16:17:23.498Z,6.40
2018-03-08T16:19:54.683Z,4.80
2018-03-08T16:22:25.306Z,5.60
2018-03-08T16:24:56.048Z,4.93
2018-03-08T16:27:26.580Z,4.50
2018-03-08T16:29:57.772Z,3.50
2018-03-08T16:32:28.892Z,3.40
2018-03-08T16:35:00.164Z,4.27
2018-03-08T16:37:30.633Z,4.77
2018-03-08T16:40:00.613Z,3.40
2018-03-08T16:42:31.181Z,4.47
2018-03-08T16:45:01.810Z,5.97
2018-03-08T16:47:32.441Z,6.00
2018-03-08T16:50:02.468Z,4.30
2018-03-08T16:52:33.193Z,6.27
2018-03-08T16:55:03.432Z,5.23
2018-03-08T16:57:34.615Z,5.50
2018-03-08T17:00:04.477Z,5.03
2018-03-08T17:02:34.392Z,5.77
2018-03-08T17:05:04.426Z,7.37
2018-03-08T17:07:34.227Z,4.90
2018-03-08T17:10:04.133Z,5.87
2018-03-08T17:12:34.164Z,5.47
2018-03-08T17:15:04.143Z,6.10
2018-03-08T17:17:33.981Z,4.90
2018-03-08T17:20:03.899Z,6.50
2018-03-08T17:22:33.843Z,7.67
2018-03-08T17:25:03.851Z,4.80
2018-03-08T17:27:34.851Z,6.27
2018-03-08T17:30:05.893Z,4.97
2018-03-08T17:32:35.837Z,4.37
2018-03-08T17:35:05.748Z,5.87
2018-03-08T17:37:35.663Z,5.97
2018-03-08T17:40:05.473Z,6.60
2018-03-08T17:42:35.281Z,5.30
2018-03-08T17:45:05.213Z,4.43
2018-03-08T17:47:35.275Z,4.43
2018-03-08T17:50:05.134Z,3.70
2018-03-08T17:52:35.273Z,4.00
2018-03-08T17:55:05.473Z,3.43
2018-03-08T17:57:35.905Z,2.80
2018-03-08T18:00:05.818Z,4.37
2018-03-08T18:02:35.634Z,2.80
2018-03-08T18:05:05.723Z,3.27
2018-03-08T18:07:35.764Z,3.47
2018-03-08T18:10:05.885Z,2.83
2018-03-08T18:12:35.907Z,2.20
2018-03-08T18:15:05.933Z,2.83
2018-03-08T18:17:35.837Z,2.50
2018-03-08T18:20:05.659Z,2.57
2018-03-08T18:22:35.703Z,3.33
2018-03-08T18:25:05.708Z,3.70
2018-03-08T18:27:36.728Z,5.00
2018-03-08T18:30:06.772Z,2.93
2018-03-08T18:32:36.760Z,4.07
2018-03-08T18:35:06.824Z,2.73
2018-03-08T18:37:36.878Z,3.80
2018-03-08T18:40:07.626Z,4.40
2018-03-08T18:42:37.647Z,3.00
2018-03-08T18:45:07.866Z,3.90
2018-03-08T18:47:37.837Z,5.63
2018-03-08T18:50:08.028Z,6.80
2018-03-08T18:52:37.924Z,6.80
2018-03-08T18:55:07.739Z,8.07
2018-03-08T18:57:38.672Z,9.37
2018-03-08T19:00:08.697Z,15.87
2018-03-08T19:02:38.510Z,27.30
2018-03-08T19:05:08.421Z,28.47
2018-03-08T19:07:38.374Z,20.80
2018-03-08T19:10:08.350Z,13.20
2018-03-08T19:12:38.356Z,6.10
2018-03-08T19:15:08.325Z,4.60
2018-03-08T19:17:38.311Z,4.73
2018-03-08T19:20:08.130Z,3.43
2018-03-08T19:22:38.351Z,4.10
2018-03-08T19:25:08.382Z,3.50
2018-03-08T19:27:38.293Z,4.03
2018-03-08T19:30:08.286Z,3.57
2018-03-08T19:32:38.952Z,4.27
2018-03-08T19:35:09.058Z,3.50
2018-03-08T19:37:38.970Z,4.37
2018-03-08T19:40:08.773Z,2.73
2018-03-08T19:42:38.588Z,4.23
2018-03-08T19:45:09.523Z,4.20
2018-03-08T19:47:40.166Z,4.83
2018-03-08T19:50:10.394Z,6.00
2018-03-08T19:52:41.211Z,5.93
2018-03-08T19:55:11.194Z,8.00
2018-03-08T19:57:41.268Z,5.83
2018-03-08T20:00:11.060Z,5.73
2018-03-08T20:02:42.047Z,6.77
2018-03-08T20:05:12.212Z,7.37
2018-03-08T20:07:42.580Z,9.60
2018-03-08T20:10:13.011Z,6.47
2018-03-08T20:12:43.549Z,7.33
2018-03-08T20:15:14.876Z,9.10
2018-03-08T20:17:45.011Z,9.13
2018-03-08T20:20:15.000Z,7.70
2018-03-08T20:22:45.237Z,8.23
2018-03-08T20:25:15.381Z,7.20
2018-03-08T20:27:45.672Z,7.70
2018-03-08T20:30:15.623Z,8.23
2018-03-08T20:32:46.741Z,8.20
2018-03-08T20:35:16.628Z,10.07
2018-03-08T20:37:46.684Z,8.90
2018-03-08T20:40:16.660Z,10.30
2018-03-08T20:42:46.681Z,10.20
2018-03-08T20:45:16.593Z,8.93
2018-03-08T20:47:46.520Z,9.83
2018-03-08T20:50:16.435Z,9.13
2018-03-08T20:52:46.453Z,8.57
2018-03-08T20:55:16.472Z,10.03
2018-03-08T20:57:46.275Z,9.83
2018-03-08T21:00:16.085Z,9.67
2018-03-08T21:02:46.108Z,10.70
2018-03-08T21:05:16.019Z,8.77
2018-03-08T21:07:45.948Z,9.70
2018-03-08T21:10:15.865Z,12.37
2018-03-08T21:12:45.779Z,9.03
2018-03-08T21:15:16.084Z,10.30
2018-03-08T21:17:45.901Z,9.67
2018-03-08T21:20:15.676Z,8.90
2018-03-08T21:22:45.637Z,9.83
2018-03-08T21:25:15.563Z,9.30
2018-03-08T21:27:45.344Z,10.87
2018-03-08T21:30:15.170Z,11.20
2018-03-08T21:32:45.098Z,10.13
2018-03-08T21:35:14.999Z,10.33
2018-03-08T21:37:45.356Z,9.50
2018-03-08T21:40:15.511Z,9.77
2018-03-08T21:42:46.614Z,10.87
2018-03-08T21:45:16.588Z,11.87
2018-03-08T21:47:46.550Z,12.40
2018-03-08T21:50:16.549Z,12.20
2018-03-08T21:52:46.465Z,7.60
2018-03-08T21:55:16.593Z,6.73
2018-03-08T21:57:46.400Z,6.60
2018-03-08T22:00:16.201Z,6.00
2018-03-08T22:02:46.121Z,6.63
2018-03-08T22:05:16.021Z,7.00
2018-03-08T22:07:46.058Z,7.63
2018-03-08T22:10:16.075Z,7.60
2018-03-08T22:12:45.996Z,7.90
2018-03-08T22:15:15.911Z,7.77
2018-03-08T22:17:46.731Z,9.30
2018-03-08T22:20:16.651Z,8.67
2018-03-08T22:22:46.457Z,7.30
2018-03-08T22:25:16.481Z,10.20
2018-03-08T22:27:46.403Z,8.87
2018-03-08T22:30:16.208Z,8.93
2018-03-08T22:32:46.119Z,8.07
2018-03-08T22:35:16.034Z,8.07
2018-03-08T22:37:45.847Z,7.43
2018-03-08T22:40:15.666Z,8.50
2018-03-08T22:42:45.575Z,7.40
2018-03-08T22:45:16.416Z,7.57
2018-03-08T22:47:46.244Z,7.87
2018-03-08T22:50:16.240Z,7.93
2018-03-08T22:52:46.168Z,8.10
2018-03-08T22:55:15.975Z,9.07
2018-03-08T22:57:46.502Z,9.10
2018-03-08T23:00:16.419Z,8.23
2018-03-08T23:02:46.326Z,8.30
2018-03-08T23:05:16.342Z,9.17
2018-03-08T23:07:46.993Z,9.13
2018-03-08T23:10:16.900Z,9.87
2018-03-08T23:12:46.703Z,8.77
2018-03-08T23:15:16.618Z,10.53
2018-03-08T23:17:46.439Z,11.03
2018-03-08T23:20:17.418Z,12.83
2018-03-08T23:22:48.527Z,11.93
2018-03-08T23:25:19.231Z,8.40
2018-03-08T23:27:49.178Z,10.07
2018-03-08T23:30:19.182Z,10.23
2018-03-08T23:32:49.686Z,9.73
2018-03-08T23:35:20.148Z,10.50
2018-03-08T23:37:51.079Z,7.83
2018-03-08T23:40:21.408Z,7.23
2018-03-08T23:42:51.930Z,5.47
2018-03-08T23:45:22.562Z,8.40
2018-03-08T23:47:52.784Z,8.27
2018-03-08T23:50:23.266Z,7.53
2018-03-08T23:52:53.614Z,8.63
2018-03-08T23:55:23.664Z,10.50
2018-03-08T23:57:54.665Z,10.27
